Time;durP1;ratioP1;P1;durP2;ratioP2;P2;SDS_P1;SDS_P2;PMS_P1;PMS_P2;Temp;Humidity;BMP_temperature;BMP_pressure;BME280_temperature;BME280_humidity;BME280_pressure;Samples;Min_cycle;Max_cycle;Signal;HPM_P1;HPM_P2
2022/06/17 00:02:11;;;;;;;12.93;10.90;;;;;;;;;;4946291;29;20046;-70
2022/06/17 00:04:38;;;;;;;12.68;10.73;;;;;;;;;;4931339;29;20102;-70
2022/06/17 00:07:07;;;;;;;13.15;11.65;;;;;;;;;;4929374;29;20110;-70
2022/06/17 00:09:35;;;;;;;11.60;10.18;;;;;;;;;;4943092;28;20052;-70
2022/06/17 00:12:03;;;;;;;14.07;11.38;;;;;;;;;;4924430;29;20055;-70
2022/06/17 00:14:33;;;;;;;14.90;10.75;;;;;;;;;;4922883;29;21489;-70
2022/06/17 00:17:20;;;;;;;14.80;11.23;;;;;;;;;;4941921;29;20549;-70
2022/06/17 00:19:47;;;;;;;14.90;11.52;;;;;;;;;;4939781;29;20129;-70
2022/06/17 00:22:14;;;;;;;15.65;12.02;;;;;;;;;;4942837;28;20102;-70
2022/06/17 00:24:42;;;;;;;14.38;11.57;;;;;;;;;;4927967;29;20137;-70
2022/06/17 00:27:11;;;;;;;19.20;12.70;;;;;;;;;;4924855;29;20058;-70
2022/06/17 00:29:39;;;;;;;16.52;12.02;;;;;;;;;;4918556;29;20439;-70
2022/06/17 00:32:07;;;;;;;12.93;11.50;;;;;;;;;;4936502;28;20461;-70
2022/06/17 00:34:34;;;;;;;16.50;12.07;;;;;;;;;;4941256;29;20102;-70
2022/06/17 00:37:02;;;;;;;17.90;12.07;;;;;;;;;;4941439;28;20106;-70
2022/06/17 00:39:31;;;;;;;15.15;12.68;;;;;;;;;;4922797;29;20127;-70
2022/06/17 00:42:03;;;;;;;16.10;13.00;;;;;;;;;;4923789;28;20090;-70
2022/06/17 00:44:35;;;;;;;13.57;12.18;;;;;;;;;;4925036;29;20047;-70
2022/06/17 00:47:07;;;;;;;16.40;12.32;;;;;;;;;;4921629;29;20055;-70
2022/06/17 00:49:41;;;;;;;13.60;12.13;;;;;;;;;;4923319;29;20111;-70
2022/06/17 00:52:11;;;;;;;16.83;12.45;;;;;;;;;;4924935;29;20086;-70
2022/06/17 00:54:40;;;;;;;14.90;12.55;;;;;;;;;;4935406;28;20395;-69
2022/06/17 00:57:18;;;;;;;15.75;12.52;;;;;;;;;;4940142;29;20063;-69
2022/06/17 00:59:59;;;;;;;15.98;12.50;;;;;;;;;;4939295;28;20102;-69
2022/06/17 01:02:29;;;;;;;13.82;11.95;;;;;;;;;;4941963;28;20056;-69
2022/06/17 01:04:56;;;;;;;17.83;13.27;;;;;;;;;;4942158;29;20402;-69
2022/06/17 01:07:25;;;;;;;21.13;14.45;;;;;;;;;;4945303;29;20067;-69
2022/06/17 01:10:02;;;;;;;14.57;12.98;;;;;;;;;;4945271;29;20058;-69
2022/06/17 01:12:30;;;;;;;18.33;13.25;;;;;;;;;;4939051;28;20198;-69
2022/06/17 01:14:59;;;;;;;17.85;12.73;;;;;;;;;;4946785;28;20144;-69
2022/06/17 01:17:26;;;;;;;15.43;13.23;;;;;;;;;;4947184;28;20446;-69
2022/06/17 01:19:57;;;;;;;14.43;12.07;;;;;;;;;;4939913;29;20055;-69
2022/06/17 01:22:27;;;;;;;18.15;12.60;;;;;;;;;;4946316;29;20043;-69
2022/06/17 01:24:59;;;;;;;15.70;13.15;;;;;;;;;;4944127;28;20056;-69
2022/06/17 01:27:28;;;;;;;16.55;12.88;;;;;;;;;;4943568;28;20050;-69
2022/06/17 01:29:55;;;;;;;16.52;12.23;;;;;;;;;;4945033;29;20102;-69
2022/06/17 01:32:26;;;;;;;17.08;13.23;;;;;;;;;;4939100;28;20529;-69
2022/06/17 01:34:53;;;;;;;16.25;12.43;;;;;;;;;;4943129;28;20051;-69
2022/06/17 01:37:21;;;;;;;14.20;12.35;;;;;;;;;;4947182;28;20152;-69
2022/06/17 01:39:48;;;;;;;19.85;12.43;;;;;;;;;;4941258;29;20066;-69
2022/06/17 01:42:17;;;;;;;17.33;12.40;;;;;;;;;;4942521;29;20102;-69
2022/06/17 01:44:44;;;;;;;14.50;12.20;;;;;;;;;;4944709;29;20051;-69
2022/06/17 01:47:13;;;;;;;18.40;12.48;;;;;;;;;;4948188;28;20047;-69
2022/06/17 01:49:42;;;;;;;16.23;12.95;;;;;;;;;;4931065;29;20055;-69
2022/06/17 01:52:10;;;;;;;16.30;12.43;;;;;;;;;;4925021;29;20051;-69
2022/06/17 01:54:39;;;;;;;16.27;11.43;;;;;;;;;;4925425;29;20063;-69
2022/06/17 01:57:09;;;;;;;15.15;11.63;;;;;;;;;;4931857;29;20787;-69
2022/06/17 01:59:40;;;;;;;17.85;12.95;;;;;;;;;;4945773;28;20415;-69
2022/06/17 02:02:09;;;;;;;18.23;12.02;;;;;;;;;;4925395;29;20077;-69
2022/06/17 02:04:39;;;;;;;15.88;11.55;;;;;;;;;;4928562;29;20054;-69
2022/06/17 02:07:11;;;;;;;17.20;11.75;;;;;;;;;;4926215;29;20113;-69
2022/06/17 02:09:38;;;;;;;12.07;10.45;;;;;;;;;;4925633;29;20062;-69
2022/06/17 02:12:06;;;;;;;12.65;10.07;;;;;;;;;;4925584;29;20062;-69
2022/06/17 02:14:34;;;;;;;13.27;10.40;;;;;;;;;;4927829;29;20204;-69
2022/06/17 02:17:03;;;;;;;14.25;10.55;;;;;;;;;;4921771;29;20146;-69
2022/06/17 02:19:34;;;;;;;12.77;10.50;;;;;;;;;;4930068;29;20059;-69
2022/06/17 02:22:05;;;;;;;13.80;10.07;;;;;;;;;;4940650;28;20059;-69
2022/06/17 02:24:33;;;;;;;14.75;10.00;;;;;;;;;;4924960;29;20047;-69
2022/06/17 02:27:02;;;;;;;16.27;10.10;;;;;;;;;;4930628;29;20461;-69
2022/06/17 02:29:32;;;;;;;12.43;10.45;;;;;;;;;;4931130;29;20055;-69
2022/06/17 02:31:59;;;;;;;14.57;10.07;;;;;;;;;;4944299;28;20059;-69
2022/06/17 02:34:28;;;;;;;15.13;10.20;;;;;;;;;;4925763;29;20055;-69
2022/06/17 02:36:57;;;;;;;15.20;10.23;;;;;;;;;;4926020;29;20051;-69
2022/06/17 02:39:26;;;;;;;13.20;8.85;;;;;;;;;;4941090;29;20067;-69
2022/06/17 02:41:53;;;;;;;11.15;9.60;;;;;;;;;;4947354;28;20040;-69
2022/06/17 02:44:22;;;;;;;12.60;9.18;;;;;;;;;;4945626;28;20067;-69
2022/06/17 02:46:50;;;;;;;14.38;9.82;;;;;;;;;;4924512;29;20119;-69
2022/06/17 02:49:19;;;;;;;12.45;9.40;;;;;;;;;;4943252;28;20431;-69
2022/06/17 02:51:49;;;;;;;12.07;8.63;;;;;;;;;;4930833;29;20066;-69
2022/06/17 02:54:17;;;;;;;14.20;9.95;;;;;;;;;;4922927;29;20106;-69
2022/06/17 02:56:46;;;;;;;14.02;8.55;;;;;;;;;;4941747;28;20055;-69
2022/06/17 02:59:16;;;;;;;14.38;8.63;;;;;;;;;;4923892;29;20069;-69
2022/06/17 03:01:44;;;;;;;13.35;9.15;;;;;;;;;;4923171;29;20154;-69
2022/06/17 03:04:14;;;;;;;14.77;8.50;;;;;;;;;;4930104;28;20106;-69
2022/06/17 03:06:42;;;;;;;11.45;8.63;;;;;;;;;;4924961;29;20059;-69
2022/06/17 03:09:18;;;;;;;14.35;9.13;;;;;;;;;;4930281;29;20058;-69
2022/06/17 03:11:47;;;;;;;12.02;8.63;;;;;;;;;;4943493;29;20142;-69
2022/06/17 03:14:14;;;;;;;10.98;8.57;;;;;;;;;;4939317;29;20099;-69
2022/06/17 03:16:42;;;;;;;10.23;8.35;;;;;;;;;;4928228;29;20503;-69
2022/06/17 03:19:10;;;;;;;11.05;8.35;;;;;;;;;;4947117;28;20730;-69
2022/06/17 03:21:37;;;;;;;14.57;9.43;;;;;;;;;;4940421;29;20059;-69
2022/06/17 03:24:11;;;;;;;14.25;9.70;;;;;;;;;;4923483;29;20172;-69
2022/06/17 03:26:42;;;;;;;12.88;9.52;;;;;;;;;;4934768;29;20085;-69
2022/06/17 03:29:11;;;;;;;10.75;8.65;;;;;;;;;;4954603;28;20114;-69
2022/06/17 03:31:40;;;;;;;11.63;9.02;;;;;;;;;;4948292;28;20055;-69
2022/06/17 03:34:08;;;;;;;11.05;8.93;;;;;;;;;;4944071;28;20414;-69
2022/06/17 03:36:38;;;;;;;15.18;9.90;;;;;;;;;;4961389;28;20058;-69
2022/06/17 03:39:06;;;;;;;9.82;8.57;;;;;;;;;;4948484;28;20506;-69
2022/06/17 03:41:36;;;;;;;13.48;9.10;;;;;;;;;;4963913;28;20121;-69
2022/06/17 03:44:06;;;;;;;10.98;8.68;;;;;;;;;;4944898;28;20050;-69
2022/06/17 03:46:38;;;;;;;12.40;8.13;;;;;;;;;;4959527;28;20101;-69
2022/06/17 03:49:07;;;;;;;14.13;8.93;;;;;;;;;;4942169;28;20051;-69
2022/06/17 03:51:36;;;;;;;13.23;8.38;;;;;;;;;;4943070;28;20113;-69
2022/06/17 03:54:03;;;;;;;13.10;7.78;;;;;;;;;;4958724;28;20505;-69
2022/06/17 03:56:31;;;;;;;11.27;8.20;;;;;;;;;;4943812;28;20059;-69
2022/06/17 03:59:00;;;;;;;13.07;9.18;;;;;;;;;;4943517;28;20121;-69
2022/06/17 04:01:33;;;;;;;11.05;8.77;;;;;;;;;;4944513;28;21648;-69
2022/06/17 04:04:02;;;;;;;16.90;8.80;;;;;;;;;;4961310;28;20051;-69
2022/06/17 04:06:31;;;;;;;11.70;7.70;;;;;;;;;;4943032;28;20740;-69
2022/06/17 04:09:00;;;;;;;11.50;8.48;;;;;;;;;;4944154;28;20079;-69
2022/06/17 04:11:29;;;;;;;12.57;7.75;;;;;;;;;;4942000;28;20055;-69
2022/06/17 04:13:57;;;;;;;10.23;7.40;;;;;;;;;;4945350;28;20383;-69
2022/06/17 04:16:28;;;;;;;11.15;8.07;;;;;;;;;;4942566;28;20062;-69
2022/06/17 04:19:03;;;;;;;9.98;7.90;;;;;;;;;;4943103;28;20138;-69
2022/06/17 04:21:31;;;;;;;10.05;7.60;;;;;;;;;;4942691;28;20062;-69
2022/06/17 04:23:58;;;;;;;12.75;7.70;;;;;;;;;;4960539;28;20051;-69
2022/06/17 04:26:28;;;;;;;11.38;7.85;;;;;;;;;;4943778;28;20047;-69
2022/06/17 04:28:58;;;;;;;9.60;7.90;;;;;;;;;;4942910;28;20047;-69
2022/06/17 04:31:26;;;;;;;10.18;7.50;;;;;;;;;;4959018;28;20589;-69
2022/06/17 04:33:54;;;;;;;9.93;7.38;;;;;;;;;;4954701;28;20055;-69
2022/06/17 04:36:25;;;;;;;10.80;7.65;;;;;;;;;;4944616;28;20078;-69
2022/06/17 04:38:54;;;;;;;10.20;7.30;;;;;;;;;;4961845;28;20081;-69
2022/06/17 04:41:23;;;;;;;10.50;7.95;;;;;;;;;;4945999;28;20649;-69
2022/06/17 04:43:52;;;;;;;10.57;7.68;;;;;;;;;;4941412;28;21126;-69
2022/06/17 04:46:22;;;;;;;11.00;7.32;;;;;;;;;;4944492;28;20126;-69
2022/06/17 04:48:50;;;;;;;12.30;7.47;;;;;;;;;;4943301;28;20062;-69
2022/06/17 04:51:17;;;;;;;10.10;7.55;;;;;;;;;;4961619;28;20070;-69
2022/06/17 04:53:47;;;;;;;10.93;7.05;;;;;;;;;;4962314;28;20061;-69
2022/06/17 04:56:19;;;;;;;11.55;7.30;;;;;;;;;;4944347;28;20047;-69
2022/06/17 04:58:46;;;;;;;15.50;7.47;;;;;;;;;;4941454;28;20105;-69
2022/06/17 05:01:16;;;;;;;9.60;6.60;;;;;;;;;;4940834;28;20718;-69
2022/06/17 05:03:43;;;;;;;14.55;7.78;;;;;;;;;;4944753;28;20050;-69
2022/06/17 05:06:11;;;;;;;10.95;7.30;;;;;;;;;;4944008;28;20050;-69
2022/06/17 05:08:40;;;;;;;10.32;6.88;;;;;;;;;;4962633;28;20122;-69
2022/06/17 05:11:12;;;;;;;13.80;8.15;;;;;;;;;;4951014;28;20463;-69
2022/06/17 05:13:44;;;;;;;11.55;7.68;;;;;;;;;;4963630;28;20055;-69
2022/06/17 05:16:13;;;;;;;9.20;7.13;;;;;;;;;;4963491;28;20055;-69
2022/06/17 05:18:40;;;;;;;12.30;7.43;;;;;;;;;;4961827;28;20058;-69
2022/06/17 05:21:08;;;;;;;10.63;7.78;;;;;;;;;;4946566;28;20680;-69
2022/06/17 05:23:35;;;;;;;12.05;7.00;;;;;;;;;;4961260;28;20047;-69
2022/06/17 05:26:03;;;;;;;10.15;7.93;;;;;;;;;;4943797;28;20410;-69
2022/06/17 05:28:31;;;;;;;11.75;7.38;;;;;;;;;;4943963;28;20066;-69
2022/06/17 05:30:59;;;;;;;9.80;6.82;;;;;;;;;;4946903;28;20055;-69
2022/06/17 05:33:26;;;;;;;11.93;7.05;;;;;;;;;;4956236;28;20094;-70
2022/06/17 05:35:53;;;;;;;14.55;7.07;;;;;;;;;;4946025;28;20049;-70
2022/06/17 05:38:20;;;;;;;11.55;7.07;;;;;;;;;;4945119;28;20078;-70
2022/06/17 05:40:48;;;;;;;12.23;7.07;;;;;;;;;;4942045;28;20095;-70
2022/06/17 05:43:15;;;;;;;13.88;7.43;;;;;;;;;;4942652;28;20719;-70
2022/06/17 05:45:44;;;;;;;10.90;6.97;;;;;;;;;;4958815;28;20101;-70
2022/06/17 05:48:11;;;;;;;11.75;7.85;;;;;;;;;;4943668;28;20062;-70
2022/06/17 05:50:38;;;;;;;11.73;7.07;;;;;;;;;;4959856;28;20050;-70
2022/06/17 05:53:06;;;;;;;11.93;7.85;;;;;;;;;;4945605;28;20058;-70
2022/06/17 05:55:34;;;;;;;12.27;7.43;;;;;;;;;;4943140;28;20078;-70
2022/06/17 05:58:02;;;;;;;12.52;7.60;;;;;;;;;;4943843;28;20059;-70
2022/06/17 06:00:30;;;;;;;9.45;6.93;;;;;;;;;;4945355;28;21313;-70
2022/06/17 06:02:59;;;;;;;11.43;7.25;;;;;;;;;;4943519;28;20059;-70
2022/06/17 06:05:27;;;;;;;17.35;7.40;;;;;;;;;;4946194;28;20504;-70
2022/06/17 06:07:54;;;;;;;9.93;7.25;;;;;;;;;;4945101;28;20413;-70
2022/06/17 06:10:22;;;;;;;12.57;6.93;;;;;;;;;;4945907;28;20054;-70
2022/06/17 06:12:57;;;;;;;12.52;7.53;;;;;;;;;;4944862;28;20054;-70
2022/06/17 06:15:25;;;;;;;10.02;7.47;;;;;;;;;;4960237;28;20047;-70
2022/06/17 06:17:53;;;;;;;9.40;7.57;;;;;;;;;;4942373;28;20105;-70
2022/06/17 06:20:21;;;;;;;13.13;7.75;;;;;;;;;;4942849;28;20061;-70
2022/06/17 06:22:49;;;;;;;12.15;7.00;;;;;;;;;;4944522;28;22501;-70
2022/06/17 06:25:17;;;;;;;12.82;6.82;;;;;;;;;;4941396;28;20130;-70
2022/06/17 06:27:44;;;;;;;13.90;7.18;;;;;;;;;;4962707;28;21364;-70
2022/06/17 06:30:17;;;;;;;10.77;6.90;;;;;;;;;;4943086;28;20092;-70
2022/06/17 06:32:48;;;;;;;9.40;6.57;;;;;;;;;;4944943;28;20525;-70
2022/06/17 06:35:15;;;;;;;8.10;6.60;;;;;;;;;;4943199;28;20047;-70
2022/06/17 06:37:44;;;;;;;8.88;6.68;;;;;;;;;;4943285;28;20073;-70
2022/06/17 06:40:12;;;;;;;10.32;6.78;;;;;;;;;;4944638;28;20525;-70
2022/06/17 06:42:39;;;;;;;13.48;6.55;;;;;;;;;;4944141;28;20117;-70
2022/06/17 06:45:07;;;;;;;11.07;6.78;;;;;;;;;;4944051;28;20058;-70
2022/06/17 06:47:34;;;;;;;8.98;6.57;;;;;;;;;;4942369;28;20102;-70
2022/06/17 06:50:02;;;;;;;8.63;6.60;;;;;;;;;;4943432;28;20399;-70
2022/06/17 06:52:29;;;;;;;9.27;6.88;;;;;;;;;;4942152;28;21220;-70
2022/06/17 06:54:57;;;;;;;11.50;6.78;;;;;;;;;;4938292;28;20065;-70
2022/06/17 06:57:25;;;;;;;11.07;6.95;;;;;;;;;;4941618;28;20058;-70
2022/06/17 06:59:52;;;;;;;11.73;6.60;;;;;;;;;;4939492;28;20059;-70
2022/06/17 07:02:19;;;;;;;11.77;6.45;;;;;;;;;;4958130;28;20098;-70
2022/06/17 07:04:46;;;;;;;10.07;6.50;;;;;;;;;;4939355;28;20682;-70
2022/06/17 07:07:18;;;;;;;9.93;6.90;;;;;;;;;;4959558;28;20055;-70
2022/06/17 07:09:45;;;;;;;11.00;6.60;;;;;;;;;;4941919;28;20106;-70
2022/06/17 07:12:13;;;;;;;13.48;6.60;;;;;;;;;;4944343;28;20139;-70
2022/06/17 07:14:41;;;;;;;10.82;6.30;;;;;;;;;;4942371;28;20047;-69
2022/06/17 07:17:09;;;;;;;11.93;6.70;;;;;;;;;;4945138;28;20051;-69
2022/06/17 07:19:36;;;;;;;8.75;6.00;;;;;;;;;;4946866;28;20086;-69
2022/06/17 07:22:03;;;;;;;6.97;5.95;;;;;;;;;;4947312;28;20157;-69
2022/06/17 07:24:31;;;;;;;10.30;5.95;;;;;;;;;;4943640;28;20151;-69
2022/06/17 07:26:58;;;;;;;8.73;6.32;;;;;;;;;;4961525;28;21189;-69
2022/06/17 07:29:26;;;;;;;9.65;6.10;;;;;;;;;;4965412;28;20055;-69
2022/06/17 07:31:54;;;;;;;9.43;5.57;;;;;;;;;;4942040;28;20109;-69
2022/06/17 07:34:21;;;;;;;11.70;6.88;;;;;;;;;;4965184;28;20062;-69
2022/06/17 07:42:18;;;;;;;9.30;5.10;;;;;;;;;;4960634;28;20101;-69
2022/06/17 07:44:47;;;;;;;11.77;6.43;;;;;;;;;;4949068;28;20054;-69
2022/06/17 07:47:15;;;;;;;9.95;6.25;;;;;;;;;;4946108;28;20062;-70
2022/06/17 07:49:42;;;;;;;14.38;6.93;;;;;;;;;;4945424;28;20062;-70
2022/06/17 07:52:10;;;;;;;10.05;6.50;;;;;;;;;;4942821;28;20161;-70
2022/06/17 07:54:37;;;;;;;10.07;6.90;;;;;;;;;;4961365;28;20058;-69
2022/06/17 07:57:05;;;;;;;9.63;6.30;;;;;;;;;;4964280;28;20043;-69
2022/06/17 07:59:32;;;;;;;9.65;6.32;;;;;;;;;;4948702;28;20482;-69
2022/06/17 08:02:00;;;;;;;12.88;6.32;;;;;;;;;;4963519;28;20043;-69
2022/06/17 08:04:28;;;;;;;8.88;6.05;;;;;;;;;;4947487;28;20113;-69
2022/06/17 08:06:55;;;;;;;11.38;5.80;;;;;;;;;;4965283;28;20510;-69
2022/06/17 08:09:23;;;;;;;16.95;7.00;;;;;;;;;;4969011;28;20359;-69
2022/06/17 08:11:51;;;;;;;12.07;5.85;;;;;;;;;;4951831;28;20050;-69
2022/06/17 08:14:18;;;;;;;10.70;6.28;;;;;;;;;;4949579;28;20488;-69
2022/06/17 08:16:46;;;;;;;11.18;5.80;;;;;;;;;;4943054;28;20129;-69
2022/06/17 08:19:15;;;;;;;11.07;5.78;;;;;;;;;;4941468;28;20069;-69
2022/06/17 08:21:43;;;;;;;11.00;5.65;;;;;;;;;;4959459;28;20047;-69
2022/06/17 08:24:10;;;;;;;12.23;5.80;;;;;;;;;;4947302;28;20169;-69
2022/06/17 08:26:38;;;;;;;8.18;5.28;;;;;;;;;;4965706;28;20055;-69
2022/06/17 08:29:05;;;;;;;7.88;5.07;;;;;;;;;;4941842;28;20478;-69
2022/06/17 08:31:32;;;;;;;12.05;5.03;;;;;;;;;;4953409;28;20062;-69
2022/06/17 08:33:59;;;;;;;7.80;4.88;;;;;;;;;;4949962;28;20051;-69
2022/06/17 08:36:29;;;;;;;12.80;5.22;;;;;;;;;;4942986;28;20061;-69
2022/06/17 08:38:58;;;;;;;9.88;4.57;;;;;;;;;;4961270;28;20050;-69
2022/06/17 08:41:27;;;;;;;10.10;5.03;;;;;;;;;;4946246;28;20069;-69
2022/06/17 08:43:59;;;;;;;15.48;4.95;;;;;;;;;;4945580;28;20058;-69
2022/06/17 08:46:34;;;;;;;8.90;4.75;;;;;;;;;;4943849;28;20047;-69
2022/06/17 08:49:06;;;;;;;7.07;4.70;;;;;;;;;;4958218;28;20051;-69
2022/06/17 08:51:42;;;;;;;9.10;4.97;;;;;;;;;;4946166;28;20079;-69
2022/06/17 08:54:15;;;;;;;9.20;4.90;;;;;;;;;;4943299;28;20062;-69
2022/06/17 08:56:45;;;;;;;12.38;5.00;;;;;;;;;;4948245;28;20122;-69
2022/06/17 08:59:19;;;;;;;10.00;5.20;;;;;;;;;;4965433;28;20556;-69
2022/06/17 09:01:48;;;;;;;14.95;5.35;;;;;;;;;;4961669;28;20051;-69
2022/06/17 09:04:22;;;;;;;9.55;4.60;;;;;;;;;;4950652;28;20051;-69
2022/06/17 09:06:56;;;;;;;8.93;4.45;;;;;;;;;;4949379;28;20097;-69
2022/06/17 09:09:34;;;;;;;10.63;4.95;;;;;;;;;;4964086;28;20501;-69
2022/06/17 09:12:06;;;;;;;9.00;4.72;;;;;;;;;;4951897;28;20063;-69
2022/06/17 09:14:39;;;;;;;8.43;4.60;;;;;;;;;;4950245;28;20105;-69
2022/06/17 09:17:09;;;;;;;12.73;5.03;;;;;;;;;;4947202;28;20732;-69
2022/06/17 09:19:38;;;;;;;10.80;4.60;;;;;;;;;;4967975;28;20050;-69
2022/06/17 09:22:10;;;;;;;9.55;4.40;;;;;;;;;;4951494;28;20046;-69
2022/06/17 09:24:39;;;;;;;8.32;4.20;;;;;;;;;;4970354;28;20059;-69
2022/06/17 09:27:08;;;;;;;8.70;4.43;;;;;;;;;;4963963;28;20051;-69
2022/06/17 09:29:38;;;;;;;9.77;4.90;;;;;;;;;;4952133;28;20109;-69
2022/06/17 09:32:07;;;;;;;8.85;4.50;;;;;;;;;;4966970;28;20137;-69
2022/06/17 09:34:37;;;;;;;8.82;4.47;;;;;;;;;;4968874;28;20054;-69
2022/06/17 09:37:08;;;;;;;6.72;4.43;;;;;;;;;;4951298;28;20051;-69
2022/06/17 09:39:41;;;;;;;10.43;4.78;;;;;;;;;;4946458;28;20113;-68
2022/06/17 09:42:12;;;;;;;8.88;4.38;;;;;;;;;;4967620;28;20050;-68
2022/06/17 09:44:42;;;;;;;13.60;4.38;;;;;;;;;;4969566;28;20051;-69
2022/06/17 09:47:14;;;;;;;7.68;4.07;;;;;;;;;;4966820;28;20039;-68
2022/06/17 09:49:44;;;;;;;8.30;3.33;;;;;;;;;;4966734;28;20058;-68
2022/06/17 09:52:12;;;;;;;9.27;4.10;;;;;;;;;;4966228;28;20043;-68
2022/06/17 09:54:47;;;;;;;13.93;3.80;;;;;;;;;;4967090;28;20054;-69
2022/06/17 09:57:16;;;;;;;11.63;3.85;;;;;;;;;;4941803;28;20137;-69
2022/06/17 09:59:45;;;;;;;6.43;3.60;;;;;;;;;;4961582;28;20097;-69
2022/06/17 10:02:18;;;;;;;7.30;4.03;;;;;;;;;;4961578;28;20081;-69
2022/06/17 10:04:45;;;;;;;10.85;4.10;;;;;;;;;;4964537;28;20055;-69
2022/06/17 10:07:19;;;;;;;9.25;4.00;;;;;;;;;;4959420;28;20117;-69
2022/06/17 10:09:54;;;;;;;12.63;4.25;;;;;;;;;;4941864;28;20055;-69
2022/06/17 10:12:26;;;;;;;8.13;3.72;;;;;;;;;;4945184;28;20066;-69
2022/06/17 10:15:03;;;;;;;12.20;4.65;;;;;;;;;;4947009;28;20066;-69
2022/06/17 10:20:29;;;;;;;6.85;3.90;;;;;;;;;;4962854;28;20050;-69
2022/06/17 10:23:03;;;;;;;8.65;3.85;;;;;;;;;;4944462;28;20062;-69
2022/06/17 10:25:41;;;;;;;7.63;3.85;;;;;;;;;;4959803;28;20521;-69
2022/06/17 10:28:24;;;;;;;13.75;4.47;;;;;;;;;;4942012;28;20057;-69
2022/06/17 10:30:57;;;;;;;8.50;4.57;;;;;;;;;;4960728;28;20051;-69
2022/06/17 10:33:24;;;;;;;8.52;5.03;;;;;;;;;;4945808;28;20070;-69
2022/06/17 10:35:52;;;;;;;23.02;5.57;;;;;;;;;;4945885;28;20141;-69
2022/06/17 10:38:21;;;;;;;7.32;4.88;;;;;;;;;;4945411;28;20059;-69
2022/06/17 10:40:50;;;;;;;10.93;5.30;;;;;;;;;;4948136;28;20054;-69
2022/06/17 10:43:20;;;;;;;12.82;4.60;;;;;;;;;;4948551;28;20137;-69
2022/06/17 10:45:48;;;;;;;9.43;4.75;;;;;;;;;;4942729;28;20055;-69
2022/06/17 10:48:23;;;;;;;10.77;5.13;;;;;;;;;;4966864;28;20387;-69
2022/06/17 10:50:51;;;;;;;6.72;4.80;;;;;;;;;;4964616;28;20074;-69
2022/06/17 10:53:21;;;;;;;12.30;4.75;;;;;;;;;;4963561;28;20058;-69
2022/06/17 10:55:51;;;;;;;10.50;4.93;;;;;;;;;;4965148;28;20457;-69
2022/06/17 10:58:20;;;;;;;10.43;4.72;;;;;;;;;;4961505;28;20050;-69
2022/06/17 11:00:53;;;;;;;8.77;4.22;;;;;;;;;;4944979;28;20063;-69
2022/06/17 11:03:26;;;;;;;10.68;4.13;;;;;;;;;;4947950;28;20173;-69
2022/06/17 11:05:58;;;;;;;7.97;4.22;;;;;;;;;;4968160;28;20263;-69
2022/06/17 11:08:27;;;;;;;11.48;4.60;;;;;;;;;;4951559;28;20047;-69
2022/06/17 11:12:02;;;;;;;7.25;4.10;;;;;;;;;;4946258;28;20055;-69
2022/06/17 11:13:45;;;;;;;8.60;4.47;;;;;;;;;;4946184;28;20054;-69
2022/06/17 11:16:17;;;;;;;9.07;3.67;;;;;;;;;;4948288;28;20070;-69
2022/06/17 11:18:45;;;;;;;8.47;4.00;;;;;;;;;;4961217;28;21175;-69
2022/06/17 11:21:21;;;;;;;12.88;4.15;;;;;;;;;;4949404;28;20121;-69
2022/06/17 11:23:51;;;;;;;7.72;4.47;;;;;;;;;;4964551;28;20054;-69
2022/06/17 11:26:21;;;;;;;8.35;4.10;;;;;;;;;;4964438;28;20105;-68
2022/06/17 11:28:49;;;;;;;8.07;3.90;;;;;;;;;;4961867;28;20050;-69
2022/06/17 11:31:17;;;;;;;10.13;3.72;;;;;;;;;;4944816;28;20442;-69
2022/06/17 11:33:56;;;;;;;11.02;4.22;;;;;;;;;;4943052;28;20130;-69
2022/06/17 11:36:25;;;;;;;8.38;3.83;;;;;;;;;;4966227;28;20058;-69
2022/06/17 11:38:52;;;;;;;10.73;4.07;;;;;;;;;;4961327;28;20059;-70
2022/06/17 11:41:22;;;;;;;14.60;4.43;;;;;;;;;;4965229;28;20051;-69
2022/06/17 11:43:50;;;;;;;8.10;4.32;;;;;;;;;;4949162;28;20101;-69
2022/06/17 11:46:20;;;;;;;10.77;4.07;;;;;;;;;;4951050;28;20102;-69
2022/06/17 11:48:49;;;;;;;6.57;3.72;;;;;;;;;;4949767;28;20047;-69
2022/06/17 11:51:17;;;;;;;11.15;4.10;;;;;;;;;;4966923;28;20196;-69
2022/06/17 11:53:46;;;;;;;8.93;4.05;;;;;;;;;;4966906;28;20105;-69
2022/06/17 11:56:27;;;;;;;8.00;4.15;;;;;;;;;;4964976;28;20065;-70
2022/06/17 11:58:57;;;;;;;9.35;4.07;;;;;;;;;;4967853;28;20043;-69
2022/06/17 12:01:24;;;;;;;9.70;4.65;;;;;;;;;;4950072;28;20061;-69
2022/06/17 12:03:51;;;;;;;10.23;3.78;;;;;;;;;;4968624;28;20501;-69
2022/06/17 12:06:24;;;;;;;9.70;4.43;;;;;;;;;;4946404;28;20105;-69
2022/06/17 12:08:55;;;;;;;11.85;4.13;;;;;;;;;;4967300;28;20126;-69
2022/06/17 12:11:27;;;;;;;9.98;4.32;;;;;;;;;;4965770;28;20047;-69
2022/06/17 12:13:59;;;;;;;8.25;4.18;;;;;;;;;;4963071;28;20062;-70
2022/06/17 12:16:33;;;;;;;8.35;3.80;;;;;;;;;;4962758;28;20129;-70
2022/06/17 12:19:00;;;;;;;9.57;4.75;;;;;;;;;;4943526;28;20054;-69
2022/06/17 12:21:33;;;;;;;9.30;3.72;;;;;;;;;;4948241;28;20047;-69
2022/06/17 12:24:06;;;;;;;11.20;3.65;;;;;;;;;;4946786;28;20122;-69
2022/06/17 12:26:36;;;;;;;10.45;4.35;;;;;;;;;;4948216;28;20605;-69
2022/06/17 12:29:08;;;;;;;9.15;3.88;;;;;;;;;;4946156;28;20078;-70
2022/06/17 12:31:47;;;;;;;7.47;3.77;;;;;;;;;;4966556;28;20058;-69
2022/06/17 12:34:20;;;;;;;6.78;3.40;;;;;;;;;;4949362;28;20339;-69
2022/06/17 12:36:50;;;;;;;7.88;3.38;;;;;;;;;;4963768;28;20043;-69
2022/06/17 12:39:22;;;;;;;6.13;3.40;;;;;;;;;;4948232;28;20066;-69
2022/06/17 12:41:55;;;;;;;9.18;3.80;;;;;;;;;;4961715;28;20109;-69
2022/06/17 12:44:30;;;;;;;7.65;3.63;;;;;;;;;;4966021;28;20418;-69
2022/06/17 12:46:59;;;;;;;6.20;3.15;;;;;;;;;;4963442;28;20129;-69
2022/06/17 12:55:09;;;;;;;7.57;3.20;;;;;;;;;;4966929;28;20093;-69
2022/06/17 12:57:39;;;;;;;5.88;2.90;;;;;;;;;;4970540;28;20050;-69
2022/06/17 13:00:09;;;;;;;8.38;3.63;;;;;;;;;;4969975;28;20608;-69
2022/06/17 13:02:47;;;;;;;6.93;3.15;;;;;;;;;;4956567;28;20502;-69
2022/06/17 13:05:18;;;;;;;7.32;3.75;;;;;;;;;;4972307;28;20114;-69
2022/06/17 13:07:53;;;;;;;7.03;3.10;;;;;;;;;;4954205;28;20110;-69
2022/06/17 13:10:42;;;;;;;7.15;3.50;;;;;;;;;;4954750;28;20059;-69
2022/06/17 13:13:16;;;;;;;5.93;3.25;;;;;;;;;;4968630;28;20422;-69
2022/06/17 13:15:48;;;;;;;6.82;3.28;;;;;;;;;;4971488;28;20086;-69
2022/06/17 13:18:19;;;;;;;6.53;2.97;;;;;;;;;;4969590;28;20538;-69
2022/06/17 13:20:49;;;;;;;5.57;2.90;;;;;;;;;;4953061;28;20074;-69
2022/06/17 13:23:22;;;;;;;7.25;2.65;;;;;;;;;;4966748;28;20497;-69
2022/06/17 13:25:51;;;;;;;5.25;2.85;;;;;;;;;;4967573;28;20047;-69
2022/06/17 13:28:24;;;;;;;7.45;2.88;;;;;;;;;;4969460;28;20051;-69
2022/06/17 13:30:56;;;;;;;7.38;2.97;;;;;;;;;;4969667;28;20105;-70
2022/06/17 13:33:26;;;;;;;7.70;3.30;;;;;;;;;;4970205;28;20047;-69
2022/06/17 13:35:58;;;;;;;9.55;3.97;;;;;;;;;;4969177;28;20050;-69
2022/06/17 13:38:26;;;;;;;;;;;;;;;;;;4951896;28;20102;-70
2022/06/17 13:40:58;;;;;;;10.65;3.72;;;;;;;;;;4969577;28;20489;-69
2022/06/17 13:43:27;;;;;;;8.73;3.60;;;;;;;;;;4970545;28;20047;-70
2022/06/17 13:46:00;;;;;;;5.07;3.03;;;;;;;;;;4969145;28;20079;-69
2022/06/17 13:48:31;;;;;;;11.13;3.50;;;;;;;;;;4955577;28;20059;-70
2022/06/17 13:51:02;;;;;;;8.30;3.30;;;;;;;;;;4970274;28;20133;-70
2022/06/17 13:53:39;;;;;;;6.22;3.38;;;;;;;;;;4965975;28;20652;-70
2022/06/17 13:56:10;;;;;;;6.68;3.35;;;;;;;;;;4967915;28;20050;-69
2022/06/17 13:58:40;;;;;;;10.25;4.00;;;;;;;;;;4969737;28;20109;-67
2022/06/17 14:01:29;;;;;;;9.98;3.83;;;;;;;;;;4970194;28;20058;-68
2022/06/17 14:04:10;;;;;;;8.10;3.60;;;;;;;;;;4952427;28;20065;-67
2022/06/17 14:07:05;;;;;;;11.80;4.07;;;;;;;;;;4961800;28;20046;-67
2022/06/17 14:09:34;;;;;;;6.97;3.53;;;;;;;;;;4890803;28;20540;-67
2022/06/17 14:12:02;;;;;;;7.57;3.20;;;;;;;;;;4964863;28;20094;-67
2022/06/17 14:14:46;;;;;;;6.78;3.15;;;;;;;;;;4947201;28;20596;-67
2022/06/17 14:17:18;;;;;;;5.53;3.20;;;;;;;;;;4970973;28;20133;-67
2022/06/17 14:19:46;;;;;;;;;;;;;;;;;;4949561;28;20084;-67
2022/06/17 14:22:19;;;;;;;9.95;3.03;;;;;;;;;;4968775;28;19933;-67
2022/06/17 14:25:01;;;;;;;6.57;2.85;;;;;;;;;;4950873;28;20054;-68
2022/06/17 14:27:47;;;;;;;4.90;2.80;;;;;;;;;;4952181;28;20229;-68
2022/06/17 14:30:33;;;;;;;12.10;3.35;;;;;;;;;;4966226;28;20054;-68
2022/06/17 14:33:01;;;;;;;7.43;3.05;;;;;;;;;;4949973;28;20446;-68
2022/06/17 14:35:30;;;;;;;5.93;2.90;;;;;;;;;;4966383;28;20106;-68
2022/06/17 14:38:14;;;;;;;5.88;2.90;;;;;;;;;;4952125;28;20043;-68
2022/06/17 14:43:26;;;;;;;8.63;2.58;;;;;;;;;;4972605;28;20051;-69
2022/06/17 14:45:56;;;;;;;6.50;2.90;;;;;;;;;;4967326;28;20105;-69
2022/06/17 14:48:37;;;;;;;8.23;2.78;;;;;;;;;;4952754;28;20058;-68
2022/06/17 14:51:06;;;;;;;8.07;2.83;;;;;;;;;;4950484;28;20071;-69
2022/06/17 14:53:45;;;;;;;6.70;2.72;;;;;;;;;;4952215;28;20069;-71
2022/06/17 14:56:35;;;;;;;5.13;2.70;;;;;;;;;;4950908;28;20773;-71
2022/06/17 14:59:03;;;;;;;5.32;2.70;;;;;;;;;;4952364;28;20146;-71
2022/06/17 15:01:33;;;;;;;8.82;2.65;;;;;;;;;;4950250;28;20533;-72
2022/06/17 15:04:03;;;;;;;7.50;2.90;;;;;;;;;;4967439;28;20046;-72
2022/06/17 15:06:37;;;;;;;7.60;2.90;;;;;;;;;;4952437;28;20055;-74
2022/06/17 15:09:06;;;;;;;5.93;2.40;;;;;;;;;;4954712;28;20133;-72